Probleme meteo

  • This site uses cookies. By continuing to use this site, you are agreeing to our use of cookies. Learn more.
  • Guest, pentru o varianta fara reclame a forumului oferim conturi premium. Mai multe detalii aici.
  • Forumul a fost upgradat la o versiune noua. Daca intapinati probleme va rog sa le raportati.

Zsolt

King Nothing
Staff member
fly-ra 2017
Feb 12, 2012
6,341
2,753
113
39
EDDK
flightradar24 feed id
My fr24 statistics
flightaware feed
My flightaware feed
Flightdiary
My fr24 profile
#2
Din cate observ, METAR-ul nu e asa de suparat.
Code:
LRBS 160930Z 24005KT 210V290 6000 BKN015 M00/M03 Q1001 0719//95 BECMG BKN025
Din pacate nema feed pe liveatc.